sensor_id;sensor_type;location;lat;lon;timestamp;P1;durP1;ratioP1;P2;durP2;ratioP2
38851;SDS011;24605;50.092;9.182;2024-02-28T00:02:13;41.55;;;18.70;;
38851;SDS011;24605;50.092;9.182;2024-02-28T00:04:40;42.75;;;19.45;;
38851;SDS011;24605;50.092;9.182;2024-02-28T00:07:07;38.38;;;18.92;;
38851;SDS011;24605;50.092;9.182;2024-02-28T00:09:33;42.70;;;18.95;;
38851;SDS011;24605;50.092;9.182;2024-02-28T00:12:01;42.33;;;20.05;;
38851;SDS011;24605;50.092;9.182;2024-02-28T00:14:27;41.15;;;19.40;;
38851;SDS011;24605;50.092;9.182;2024-02-28T00:16:54;42.42;;;19.63;;
38851;SDS011;24605;50.092;9.182;2024-02-28T00:19:21;46.28;;;20.58;;
38851;SDS011;24605;50.092;9.182;2024-02-28T00:21:50;44.85;;;20.38;;
38851;SDS011;24605;50.092;9.182;2024-02-28T00:24:17;39.90;;;19.75;;
38851;SDS011;24605;50.092;9.182;2024-02-28T00:26:43;39.95;;;19.55;;
38851;SDS011;24605;50.092;9.182;2024-02-28T00:29:11;37.80;;;18.67;;
38851;SDS011;24605;50.092;9.182;2024-02-28T00:31:37;44.47;;;19.02;;
38851;SDS011;24605;50.092;9.182;2024-02-28T00:34:04;48.53;;;19.38;;
38851;SDS011;24605;50.092;9.182;2024-02-28T00:36:31;41.22;;;18.38;;
38851;SDS011;24605;50.092;9.182;2024-02-28T00:38:58;43.05;;;18.42;;
38851;SDS011;24605;50.092;9.182;2024-02-28T00:41:24;36.85;;;17.83;;
38851;SDS011;24605;50.092;9.182;2024-02-28T00:43:51;44.25;;;19.58;;
38851;SDS011;24605;50.092;9.182;2024-02-28T00:46:18;43.47;;;19.30;;
38851;SDS011;24605;50.092;9.182;2024-02-28T00:48:45;42.63;;;19.15;;
38851;SDS011;24605;50.092;9.182;2024-02-28T00:51:11;41.22;;;17.80;;
38851;SDS011;24605;50.092;9.182;2024-02-28T00:53:38;41.50;;;17.38;;
38851;SDS011;24605;50.092;9.182;2024-02-28T00:56:04;41.47;;;17.77;;
38851;SDS011;24605;50.092;9.182;2024-02-28T00:58:31;43.65;;;19.10;;
38851;SDS011;24605;50.092;9.182;2024-02-28T01:00:58;46.58;;;19.17;;
38851;SDS011;24605;50.092;9.182;2024-02-28T01:03:26;36.28;;;17.60;;
38851;SDS011;24605;50.092;9.182;2024-02-28T01:05:52;39.33;;;18.35;;
38851;SDS011;24605;50.092;9.182;2024-02-28T01:08:18;42.58;;;19.35;;
38851;SDS011;24605;50.092;9.182;2024-02-28T01:10:45;41.80;;;19.17;;
38851;SDS011;24605;50.092;9.182;2024-02-28T01:13:12;40.97;;;17.85;;
38851;SDS011;24605;50.092;9.182;2024-02-28T01:15:39;37.83;;;17.92;;
38851;SDS011;24605;50.092;9.182;2024-02-28T01:18:05;41.95;;;19.25;;
38851;SDS011;24605;50.092;9.182;2024-02-28T01:20:33;39.72;;;18.02;;
38851;SDS011;24605;50.092;9.182;2024-02-28T01:23:00;40.67;;;17.27;;
38851;SDS011;24605;50.092;9.182;2024-02-28T01:25:26;35.88;;;16.48;;
38851;SDS011;24605;50.092;9.182;2024-02-28T01:27:53;37.78;;;16.63;;
38851;SDS011;24605;50.092;9.182;2024-02-28T01:30:19;37.95;;;16.88;;
38851;SDS011;24605;50.092;9.182;2024-02-28T01:32:45;39.85;;;18.02;;
38851;SDS011;24605;50.092;9.182;2024-02-28T01:35:13;38.10;;;18.20;;
38851;SDS011;24605;50.092;9.182;2024-02-28T01:37:41;41.65;;;18.00;;
38851;SDS011;24605;50.092;9.182;2024-02-28T01:40:08;40.17;;;18.13;;
38851;SDS011;24605;50.092;9.182;2024-02-28T01:42:35;40.67;;;18.42;;
38851;SDS011;24605;50.092;9.182;2024-02-28T01:45:02;45.95;;;19.20;;
38851;SDS011;24605;50.092;9.182;2024-02-28T01:47:28;44.60;;;18.25;;
38851;SDS011;24605;50.092;9.182;2024-02-28T01:49:56;45.75;;;18.60;;
38851;SDS011;24605;50.092;9.182;2024-02-28T01:52:23;46.88;;;20.25;;
38851;SDS011;24605;50.092;9.182;2024-02-28T01:54:51;47.65;;;19.23;;
38851;SDS011;24605;50.092;9.182;2024-02-28T01:57:17;44.63;;;19.38;;
38851;SDS011;24605;50.092;9.182;2024-02-28T01:59:44;46.17;;;20.10;;
38851;SDS011;24605;50.092;9.182;2024-02-28T02:02:12;52.58;;;21.70;;
38851;SDS011;24605;50.092;9.182;2024-02-28T02:04:39;53.63;;;22.15;;
38851;SDS011;24605;50.092;9.182;2024-02-28T02:07:05;54.15;;;21.25;;
38851;SDS011;24605;50.092;9.182;2024-02-28T02:09:33;51.78;;;21.13;;
38851;SDS011;24605;50.092;9.182;2024-02-28T02:12:02;50.63;;;20.92;;
38851;SDS011;24605;50.092;9.182;2024-02-28T02:14:28;52.58;;;23.13;;
38851;SDS011;24605;50.092;9.182;2024-02-28T02:16:55;52.97;;;20.60;;
38851;SDS011;24605;50.092;9.182;2024-02-28T02:19:21;58.13;;;23.00;;
38851;SDS011;24605;50.092;9.182;2024-02-28T02:21:49;51.30;;;21.73;;
38851;SDS011;24605;50.092;9.182;2024-02-28T02:24:19;52.00;;;21.85;;
38851;SDS011;24605;50.092;9.182;2024-02-28T02:26:45;53.17;;;21.75;;
38851;SDS011;24605;50.092;9.182;2024-02-28T02:29:12;54.10;;;20.83;;
38851;SDS011;24605;50.092;9.182;2024-02-28T02:31:39;53.00;;;21.73;;
38851;SDS011;24605;50.092;9.182;2024-02-28T02:34:05;48.60;;;19.60;;
38851;SDS011;24605;50.092;9.182;2024-02-28T02:36:32;51.80;;;20.52;;
38851;SDS011;24605;50.092;9.182;2024-02-28T02:38:58;48.50;;;19.90;;
38851;SDS011;24605;50.092;9.182;2024-02-28T02:41:26;55.30;;;20.73;;
38851;SDS011;24605;50.092;9.182;2024-02-28T02:43:53;52.30;;;20.75;;
38851;SDS011;24605;50.092;9.182;2024-02-28T02:46:19;51.30;;;20.45;;
38851;SDS011;24605;50.092;9.182;2024-02-28T02:48:46;57.35;;;21.63;;
38851;SDS011;24605;50.092;9.182;2024-02-28T02:51:12;50.40;;;20.65;;
38851;SDS011;24605;50.092;9.182;2024-02-28T02:53:39;55.58;;;20.33;;
38851;SDS011;24605;50.092;9.182;2024-02-28T02:56:05;55.63;;;20.85;;
38851;SDS011;24605;50.092;9.182;2024-02-28T02:58:34;54.15;;;21.65;;
38851;SDS011;24605;50.092;9.182;2024-02-28T03:01:00;53.47;;;21.77;;
38851;SDS011;24605;50.092;9.182;2024-02-28T03:03:27;55.35;;;21.25;;
38851;SDS011;24605;50.092;9.182;2024-02-28T03:05:53;53.72;;;21.13;;
38851;SDS011;24605;50.092;9.182;2024-02-28T03:08:19;55.20;;;21.13;;
38851;SDS011;24605;50.092;9.182;2024-02-28T03:10:46;57.00;;;21.25;;
38851;SDS011;24605;50.092;9.182;2024-02-28T03:13:12;53.88;;;21.15;;
38851;SDS011;24605;50.092;9.182;2024-02-28T03:15:40;57.85;;;22.13;;
38851;SDS011;24605;50.092;9.182;2024-02-28T03:18:07;57.13;;;21.30;;
38851;SDS011;24605;50.092;9.182;2024-02-28T03:20:33;52.05;;;21.25;;
38851;SDS011;24605;50.092;9.182;2024-02-28T03:23:03;53.67;;;20.30;;
38851;SDS011;24605;50.092;9.182;2024-02-28T03:25:30;56.53;;;21.25;;
38851;SDS011;24605;50.092;9.182;2024-02-28T03:27:57;51.63;;;19.48;;
38851;SDS011;24605;50.092;9.182;2024-02-28T03:30:24;51.17;;;20.67;;
38851;SDS011;24605;50.092;9.182;2024-02-28T03:32:52;58.60;;;21.27;;
38851;SDS011;24605;50.092;9.182;2024-02-28T03:35:19;52.15;;;20.15;;
38851;SDS011;24605;50.092;9.182;2024-02-28T03:37:45;52.60;;;19.73;;
38851;SDS011;24605;50.092;9.182;2024-02-28T03:40:12;50.63;;;19.65;;
38851;SDS011;24605;50.092;9.182;2024-02-28T03:42:39;57.80;;;20.98;;
38851;SDS011;24605;50.092;9.182;2024-02-28T03:45:06;52.70;;;20.45;;
38851;SDS011;24605;50.092;9.182;2024-02-28T03:47:32;58.03;;;20.60;;
38851;SDS011;24605;50.092;9.182;2024-02-28T03:50:00;56.70;;;20.83;;
38851;SDS011;24605;50.092;9.182;2024-02-28T03:52:28;55.95;;;20.10;;
38851;SDS011;24605;50.092;9.182;2024-02-28T03:54:56;52.05;;;19.42;;
38851;SDS011;24605;50.092;9.182;2024-02-28T03:57:23;55.50;;;20.52;;
38851;SDS011;24605;50.092;9.182;2024-02-28T03:59:49;81.03;;;23.50;;
38851;SDS011;24605;50.092;9.182;2024-02-28T04:02:15;63.90;;;22.38;;
38851;SDS011;24605;50.092;9.182;2024-02-28T04:04:42;64.22;;;23.05;;
38851;SDS011;24605;50.092;9.182;2024-02-28T04:07:10;58.78;;;22.48;;
38851;SDS011;24605;50.092;9.182;2024-02-28T04:09:37;63.28;;;21.83;;
38851;SDS011;24605;50.092;9.182;2024-02-28T04:12:03;61.50;;;22.65;;
38851;SDS011;24605;50.092;9.182;2024-02-28T04:14:30;61.33;;;22.23;;
38851;SDS011;24605;50.092;9.182;2024-02-28T04:16:57;59.45;;;21.67;;
38851;SDS011;24605;50.092;9.182;2024-02-28T04:19:23;63.42;;;21.63;;
38851;SDS011;24605;50.092;9.182;2024-02-28T04:21:49;53.88;;;20.95;;
38851;SDS011;24605;50.092;9.182;2024-02-28T04:24:17;66.47;;;21.98;;
38851;SDS011;24605;50.092;9.182;2024-02-28T04:26:44;57.83;;;22.05;;
38851;SDS011;24605;50.092;9.182;2024-02-28T04:29:10;60.53;;;21.85;;
38851;SDS011;24605;50.092;9.182;2024-02-28T04:31:39;58.08;;;21.45;;
38851;SDS011;24605;50.092;9.182;2024-02-28T04:34:05;62.10;;;21.83;;
38851;SDS011;24605;50.092;9.182;2024-02-28T04:36:31;60.38;;;21.27;;
38851;SDS011;24605;50.092;9.182;2024-02-28T04:38:58;58.42;;;20.88;;
38851;SDS011;24605;50.092;9.182;2024-02-28T04:41:27;54.00;;;20.48;;
38851;SDS011;24605;50.092;9.182;2024-02-28T04:43:53;54.22;;;22.02;;
38851;SDS011;24605;50.092;9.182;2024-02-28T04:46:20;60.30;;;21.58;;
38851;SDS011;24605;50.092;9.182;2024-02-28T04:48:46;58.20;;;20.92;;
38851;SDS011;24605;50.092;9.182;2024-02-28T04:51:15;68.65;;;22.40;;
38851;SDS011;24605;50.092;9.182;2024-02-28T04:53:42;60.55;;;20.98;;
38851;SDS011;24605;50.092;9.182;2024-02-28T04:56:09;61.35;;;21.52;;
38851;SDS011;24605;50.092;9.182;2024-02-28T04:58:37;60.85;;;20.95;;
38851;SDS011;24605;50.092;9.182;2024-02-28T05:01:04;58.47;;;21.85;;
38851;SDS011;24605;50.092;9.182;2024-02-28T05:03:30;64.20;;;22.38;;
38851;SDS011;24605;50.092;9.182;2024-02-28T05:05:56;62.22;;;20.92;;
38851;SDS011;24605;50.092;9.182;2024-02-28T05:08:23;53.05;;;21.02;;
38851;SDS011;24605;50.092;9.182;2024-02-28T05:10:52;59.22;;;21.10;;
38851;SDS011;24605;50.092;9.182;2024-02-28T05:13:18;63.83;;;21.45;;
38851;SDS011;24605;50.092;9.182;2024-02-28T05:15:46;62.55;;;21.08;;
38851;SDS011;24605;50.092;9.182;2024-02-28T05:18:13;64.38;;;24.60;;
38851;SDS011;24605;50.092;9.182;2024-02-28T05:20:39;61.85;;;22.33;;
38851;SDS011;24605;50.092;9.182;2024-02-28T05:23:05;55.30;;;21.80;;
38851;SDS011;24605;50.092;9.182;2024-02-28T05:25:32;55.33;;;20.95;;
38851;SDS011;24605;50.092;9.182;2024-02-28T05:27:58;60.83;;;20.13;;
38851;SDS011;24605;50.092;9.182;2024-02-28T05:30:25;58.85;;;21.05;;
38851;SDS011;24605;50.092;9.182;2024-02-28T05:32:52;53.28;;;20.00;;
38851;SDS011;24605;50.092;9.182;2024-02-28T05:35:19;54.30;;;20.67;;
38851;SDS011;24605;50.092;9.182;2024-02-28T05:37:46;55.47;;;20.85;;
38851;SDS011;24605;50.092;9.182;2024-02-28T05:40:12;63.40;;;21.85;;
38851;SDS011;24605;50.092;9.182;2024-02-28T05:42:39;59.33;;;19.50;;
38851;SDS011;24605;50.092;9.182;2024-02-28T05:45:08;56.30;;;20.63;;
38851;SDS011;24605;50.092;9.182;2024-02-28T05:47:35;53.28;;;19.08;;
38851;SDS011;24605;50.092;9.182;2024-02-28T05:50:03;57.63;;;20.17;;
38851;SDS011;24605;50.092;9.182;2024-02-28T05:52:30;78.65;;;34.65;;
38851;SDS011;24605;50.092;9.182;2024-02-28T05:54:57;83.85;;;34.00;;
38851;SDS011;24605;50.092;9.182;2024-02-28T05:57:23;80.20;;;29.42;;
38851;SDS011;24605;50.092;9.182;2024-02-28T05:59:50;78.28;;;30.80;;
38851;SDS011;24605;50.092;9.182;2024-02-28T06:02:16;69.35;;;26.33;;
38851;SDS011;24605;50.092;9.182;2024-02-28T06:04:43;67.70;;;23.00;;
38851;SDS011;24605;50.092;9.182;2024-02-28T06:07:11;62.97;;;22.88;;
38851;SDS011;24605;50.092;9.182;2024-02-28T06:09:37;64.07;;;21.63;;
38851;SDS011;24605;50.092;9.182;2024-02-28T06:12:04;68.88;;;21.10;;
38851;SDS011;24605;50.092;9.182;2024-02-28T06:14:31;66.60;;;20.77;;
38851;SDS011;24605;50.092;9.182;2024-02-28T06:16:58;56.05;;;19.70;;
38851;SDS011;24605;50.092;9.182;2024-02-28T06:19:24;68.03;;;22.98;;
38851;SDS011;24605;50.092;9.182;2024-02-28T06:21:51;69.88;;;21.60;;
38851;SDS011;24605;50.092;9.182;2024-02-28T06:24:19;61.28;;;21.50;;
38851;SDS011;24605;50.092;9.182;2024-02-28T06:26:45;61.83;;;21.13;;
38851;SDS011;24605;50.092;9.182;2024-02-28T06:29:12;57.22;;;19.88;;
38851;SDS011;24605;50.092;9.182;2024-02-28T06:31:39;67.70;;;21.27;;
38851;SDS011;24605;50.092;9.182;2024-02-28T06:34:04;55.95;;;19.75;;
38851;SDS011;24605;50.092;9.182;2024-02-28T06:36:31;57.28;;;21.05;;
38851;SDS011;24605;50.092;9.182;2024-02-28T06:38:57;59.35;;;20.58;;
38851;SDS011;24605;50.092;9.182;2024-02-28T06:41:25;57.25;;;19.85;;
38851;SDS011;24605;50.092;9.182;2024-02-28T06:43:52;61.60;;;19.52;;
38851;SDS011;24605;50.092;9.182;2024-02-28T06:46:18;64.03;;;19.52;;
38851;SDS011;24605;50.092;9.182;2024-02-28T06:48:45;57.92;;;19.10;;
38851;SDS011;24605;50.092;9.182;2024-02-28T06:51:11;56.67;;;19.27;;
38851;SDS011;24605;50.092;9.182;2024-02-28T06:53:37;54.95;;;18.85;;
38851;SDS011;24605;50.092;9.182;2024-02-28T06:56:04;56.47;;;19.20;;
38851;SDS011;24605;50.092;9.182;2024-02-28T06:58:32;59.42;;;19.02;;
38851;SDS011;24605;50.092;9.182;2024-02-28T07:00:59;59.20;;;19.73;;
38851;SDS011;24605;50.092;9.182;2024-02-28T07:03:25;64.28;;;19.75;;
38851;SDS011;24605;50.092;9.182;2024-02-28T07:05:52;64.25;;;20.25;;
38851;SDS011;24605;50.092;9.182;2024-02-28T07:08:19;63.95;;;19.63;;
38851;SDS011;24605;50.092;9.182;2024-02-28T07:10:46;59.88;;;19.05;;
38851;SDS011;24605;50.092;9.182;2024-02-28T07:13:14;67.85;;;22.25;;
38851;SDS011;24605;50.092;9.182;2024-02-28T07:15:42;63.72;;;20.40;;
38851;SDS011;24605;50.092;9.182;2024-02-28T07:18:09;60.80;;;19.20;;
38851;SDS011;24605;50.092;9.182;2024-02-28T07:20:35;58.20;;;20.15;;
38851;SDS011;24605;50.092;9.182;2024-02-28T07:23:01;60.10;;;20.10;;
38851;SDS011;24605;50.092;9.182;2024-02-28T07:25:28;62.90;;;19.00;;
38851;SDS011;24605;50.092;9.182;2024-02-28T07:27:56;63.75;;;19.80;;
38851;SDS011;24605;50.092;9.182;2024-02-28T07:30:24;58.45;;;20.55;;
38851;SDS011;24605;50.092;9.182;2024-02-28T07:32:52;62.70;;;20.20;;
38851;SDS011;24605;50.092;9.182;2024-02-28T07:35:19;60.17;;;19.25;;
38851;SDS011;24605;50.092;9.182;2024-02-28T07:37:45;69.80;;;25.17;;
38851;SDS011;24605;50.092;9.182;2024-02-28T07:40:14;56.35;;;19.10;;
38851;SDS011;24605;50.092;9.182;2024-02-28T07:42:40;60.83;;;21.00;;
38851;SDS011;24605;50.092;9.182;2024-02-28T07:45:07;58.85;;;20.02;;
38851;SDS011;24605;50.092;9.182;2024-02-28T07:47:34;58.83;;;20.35;;
38851;SDS011;24605;50.092;9.182;2024-02-28T07:50:02;58.30;;;22.05;;
38851;SDS011;24605;50.092;9.182;2024-02-28T07:52:28;60.08;;;20.50;;
38851;SDS011;24605;50.092;9.182;2024-02-28T07:54:55;62.05;;;20.67;;
38851;SDS011;24605;50.092;9.182;2024-02-28T07:57:22;70.28;;;22.90;;
38851;SDS011;24605;50.092;9.182;2024-02-28T07:59:48;62.35;;;20.92;;
38851;SDS011;24605;50.092;9.182;2024-02-28T08:02:15;59.30;;;20.17;;
38851;SDS011;24605;50.092;9.182;2024-02-28T08:04:45;62.50;;;20.45;;
38851;SDS011;24605;50.092;9.182;2024-02-28T08:07:12;65.22;;;20.63;;
38851;SDS011;24605;50.092;9.182;2024-02-28T08:09:40;59.75;;;20.98;;
38851;SDS011;24605;50.092;9.182;2024-02-28T08:12:06;49.30;;;17.77;;
38851;SDS011;24605;50.092;9.182;2024-02-28T08:14:33;51.20;;;19.00;;
38851;SDS011;24605;50.092;9.182;2024-02-28T08:16:59;58.38;;;20.10;;
38851;SDS011;24605;50.092;9.182;2024-02-28T08:19:26;50.80;;;18.33;;
38851;SDS011;24605;50.092;9.182;2024-02-28T08:21:52;56.75;;;19.55;;
38851;SDS011;24605;50.092;9.182;2024-02-28T08:24:20;52.05;;;18.58;;
38851;SDS011;24605;50.092;9.182;2024-02-28T08:26:46;50.17;;;18.67;;
38851;SDS011;24605;50.092;9.182;2024-02-28T08:29:13;48.03;;;17.88;;
38851;SDS011;24605;50.092;9.182;2024-02-28T08:31:40;49.85;;;18.80;;
38851;SDS011;24605;50.092;9.182;2024-02-28T08:34:07;48.60;;;18.73;;
38851;SDS011;24605;50.092;9.182;2024-02-28T08:36:34;50.95;;;19.80;;
38851;SDS011;24605;50.092;9.182;2024-02-28T08:39:01;45.40;;;18.50;;
38851;SDS011;24605;50.092;9.182;2024-02-28T08:41:31;51.45;;;19.75;;
38851;SDS011;24605;50.092;9.182;2024-02-28T08:43:58;48.80;;;18.63;;
38851;SDS011;24605;50.092;9.182;2024-02-28T08:46:24;47.13;;;18.83;;
38851;SDS011;24605;50.092;9.182;2024-02-28T08:48:51;45.67;;;18.08;;
38851;SDS011;24605;50.092;9.182;2024-02-28T08:51:17;48.15;;;18.42;;
38851;SDS011;24605;50.092;9.182;2024-02-28T08:53:44;45.53;;;18.20;;
38851;SDS011;24605;50.092;9.182;2024-02-28T08:56:10;46.35;;;18.15;;
38851;SDS011;24605;50.092;9.182;2024-02-28T08:58:38;44.10;;;18.85;;
38851;SDS011;24605;50.092;9.182;2024-02-28T09:01:05;41.00;;;18.10;;
38851;SDS011;24605;50.092;9.182;2024-02-28T09:03:31;44.55;;;18.92;;
38851;SDS011;24605;50.092;9.182;2024-02-28T09:05:58;48.20;;;21.48;;
38851;SDS011;24605;50.092;9.182;2024-02-28T09:08:25;42.13;;;18.00;;
38851;SDS011;24605;50.092;9.182;2024-02-28T09:10:51;43.10;;;18.45;;
38851;SDS011;24605;50.092;9.182;2024-02-28T09:13:18;40.75;;;17.02;;
38851;SDS011;24605;50.092;9.182;2024-02-28T09:15:46;37.85;;;16.45;;
38851;SDS011;24605;50.092;9.182;2024-02-28T09:18:12;38.97;;;16.15;;
38851;SDS011;24605;50.092;9.182;2024-02-28T09:20:39;36.03;;;16.33;;
38851;SDS011;24605;50.092;9.182;2024-02-28T09:23:05;36.90;;;16.88;;
38851;SDS011;24605;50.092;9.182;2024-02-28T09:25:32;36.28;;;16.55;;
38851;SDS011;24605;50.092;9.182;2024-02-28T09:28:00;34.00;;;15.98;;
38851;SDS011;24605;50.092;9.182;2024-02-28T09:30:26;29.98;;;14.32;;
38851;SDS011;24605;50.092;9.182;2024-02-28T09:32:54;32.00;;;14.85;;
38851;SDS011;24605;50.092;9.182;2024-02-28T09:35:21;32.58;;;13.68;;
38851;SDS011;24605;50.092;9.182;2024-02-28T09:37:47;31.08;;;14.15;;
38851;SDS011;24605;50.092;9.182;2024-02-28T09:40:14;29.55;;;13.88;;
38851;SDS011;24605;50.092;9.182;2024-02-28T09:42:41;31.25;;;14.23;;
38851;SDS011;24605;50.092;9.182;2024-02-28T09:45:08;32.92;;;14.88;;
38851;SDS011;24605;50.092;9.182;2024-02-28T09:47:35;31.13;;;15.90;;
38851;SDS011;24605;50.092;9.182;2024-02-28T09:50:04;30.98;;;13.68;;
38851;SDS011;24605;50.092;9.182;2024-02-28T09:52:31;29.65;;;13.80;;
38851;SDS011;24605;50.092;9.182;2024-02-28T09:54:57;29.15;;;14.25;;
38851;SDS011;24605;50.092;9.182;2024-02-28T09:57:24;31.27;;;15.10;;
38851;SDS011;24605;50.092;9.182;2024-02-28T09:59:53;29.15;;;13.55;;
38851;SDS011;24605;50.092;9.182;2024-02-28T10:02:21;27.88;;;13.23;;
38851;SDS011;24605;50.092;9.182;2024-02-28T10:04:50;27.90;;;14.18;;
38851;SDS011;24605;50.092;9.182;2024-02-28T10:07:19;29.83;;;13.55;;
38851;SDS011;24605;50.092;9.182;2024-02-28T10:09:46;27.98;;;14.00;;
38851;SDS011;24605;50.092;9.182;2024-02-28T10:12:13;29.88;;;14.05;;
38851;SDS011;24605;50.092;9.182;2024-02-28T10:14:40;26.83;;;13.43;;
38851;SDS011;24605;50.092;9.182;2024-02-28T10:17:06;27.63;;;13.38;;
38851;SDS011;24605;50.092;9.182;2024-02-28T10:19:33;23.35;;;12.40;;
38851;SDS011;24605;50.092;9.182;2024-02-28T10:22:00;26.17;;;13.50;;
38851;SDS011;24605;50.092;9.182;2024-02-28T10:24:28;26.58;;;13.43;;
38851;SDS011;24605;50.092;9.182;2024-02-28T10:26:54;28.05;;;13.75;;
38851;SDS011;24605;50.092;9.182;2024-02-28T10:29:21;25.33;;;12.63;;
38851;SDS011;24605;50.092;9.182;2024-02-28T10:31:48;23.95;;;11.65;;
38851;SDS011;24605;50.092;9.182;2024-02-28T10:34:15;27.33;;;12.93;;
38851;SDS011;24605;50.092;9.182;2024-02-28T10:36:43;25.65;;;13.25;;
38851;SDS011;24605;50.092;9.182;2024-02-28T10:39:11;26.83;;;13.60;;
38851;SDS011;24605;50.092;9.182;2024-02-28T10:41:39;28.67;;;14.52;;
38851;SDS011;24605;50.092;9.182;2024-02-28T10:44:05;27.83;;;13.95;;
38851;SDS011;24605;50.092;9.182;2024-02-28T10:46:32;26.77;;;12.93;;
38851;SDS011;24605;50.092;9.182;2024-02-28T10:48:59;27.25;;;13.80;;
38851;SDS011;24605;50.092;9.182;2024-02-28T10:51:26;27.08;;;13.40;;
38851;SDS011;24605;50.092;9.182;2024-02-28T10:53:57;28.42;;;13.80;;
38851;SDS011;24605;50.092;9.182;2024-02-28T10:56:33;28.95;;;13.60;;
38851;SDS011;24605;50.092;9.182;2024-02-28T10:59:02;26.70;;;14.07;;
38851;SDS011;24605;50.092;9.182;2024-02-28T11:01:31;26.40;;;13.40;;
38851;SDS011;24605;50.092;9.182;2024-02-28T11:03:58;22.70;;;12.73;;
38851;SDS011;24605;50.092;9.182;2024-02-28T11:06:25;26.25;;;14.10;;
38851;SDS011;24605;50.092;9.182;2024-02-28T11:08:52;24.65;;;13.13;;
38851;SDS011;24605;50.092;9.182;2024-02-28T11:11:21;22.58;;;12.93;;
38851;SDS011;24605;50.092;9.182;2024-02-28T11:13:51;25.73;;;13.77;;
38851;SDS011;24605;50.092;9.182;2024-02-28T11:16:25;25.48;;;13.98;;
38851;SDS011;24605;50.092;9.182;2024-02-28T11:18:52;25.48;;;13.40;;
38851;SDS011;24605;50.092;9.182;2024-02-28T11:21:19;23.80;;;13.55;;
38851;SDS011;24605;50.092;9.182;2024-02-28T11:23:46;26.48;;;13.93;;
38851;SDS011;24605;50.092;9.182;2024-02-28T11:26:13;26.77;;;14.48;;
38851;SDS011;24605;50.092;9.182;2024-02-28T11:28:39;24.33;;;13.52;;
38851;SDS011;24605;50.092;9.182;2024-02-28T11:31:06;28.35;;;14.57;;
38851;SDS011;24605;50.092;9.182;2024-02-28T11:33:34;26.40;;;14.27;;
38851;SDS011;24605;50.092;9.182;2024-02-28T11:36:03;23.73;;;13.60;;
38851;SDS011;24605;50.092;9.182;2024-02-28T11:38:30;25.13;;;14.07;;
38851;SDS011;24605;50.092;9.182;2024-02-28T11:40:57;26.27;;;14.68;;
38851;SDS011;24605;50.092;9.182;2024-02-28T11:43:23;27.75;;;14.75;;
38851;SDS011;24605;50.092;9.182;2024-02-28T11:45:50;22.67;;;13.50;;
38851;SDS011;24605;50.092;9.182;2024-02-28T11:48:16;26.10;;;14.57;;
38851;SDS011;24605;50.092;9.182;2024-02-28T11:50:46;27.80;;;15.25;;
38851;SDS011;24605;50.092;9.182;2024-02-28T11:53:12;27.38;;;15.05;;
38851;SDS011;24605;50.092;9.182;2024-02-28T11:55:39;28.15;;;14.40;;
38851;SDS011;24605;50.092;9.182;2024-02-28T11:58:07;25.80;;;15.27;;
38851;SDS011;24605;50.092;9.182;2024-02-28T12:00:35;27.75;;;15.07;;
38851;SDS011;24605;50.092;9.182;2024-02-28T12:03:12;26.75;;;14.23;;
38851;SDS011;24605;50.092;9.182;2024-02-28T12:05:39;26.83;;;15.18;;
38851;SDS011;24605;50.092;9.182;2024-02-28T12:08:10;25.23;;;14.05;;
38851;SDS011;24605;50.092;9.182;2024-02-28T12:10:36;26.35;;;13.80;;
38851;SDS011;24605;50.092;9.182;2024-02-28T12:13:04;26.13;;;13.57;;
38851;SDS011;24605;50.092;9.182;2024-02-28T12:15:32;27.25;;;14.15;;
38851;SDS011;24605;50.092;9.182;2024-02-28T12:17:59;23.85;;;14.18;;
38851;SDS011;24605;50.092;9.182;2024-02-28T12:20:25;26.35;;;14.48;;
38851;SDS011;24605;50.092;9.182;2024-02-28T12:22:52;27.08;;;14.02;;
38851;SDS011;24605;50.092;9.182;2024-02-28T12:25:20;24.83;;;14.23;;
38851;SDS011;24605;50.092;9.182;2024-02-28T12:27:46;26.13;;;14.88;;
38851;SDS011;24605;50.092;9.182;2024-02-28T12:30:13;28.48;;;14.77;;
38851;SDS011;24605;50.092;9.182;2024-02-28T12:32:40;27.75;;;13.98;;
38851;SDS011;24605;50.092;9.182;2024-02-28T12:35:06;23.95;;;12.77;;
38851;SDS011;24605;50.092;9.182;2024-02-28T12:37:33;26.75;;;13.90;;
38851;SDS011;24605;50.092;9.182;2024-02-28T12:40:00;27.58;;;14.20;;
38851;SDS011;24605;50.092;9.182;2024-02-28T12:42:29;25.85;;;13.93;;
38851;SDS011;24605;50.092;9.182;2024-02-28T12:44:55;28.73;;;15.25;;
38851;SDS011;24605;50.092;9.182;2024-02-28T12:47:21;27.48;;;14.57;;
38851;SDS011;24605;50.092;9.182;2024-02-28T12:49:48;23.08;;;13.20;;
38851;SDS011;24605;50.092;9.182;2024-02-28T12:52:14;23.40;;;12.98;;
38851;SDS011;24605;50.092;9.182;2024-02-28T12:54:41;24.85;;;13.30;;
38851;SDS011;24605;50.092;9.182;2024-02-28T12:57:07;21.77;;;12.57;;
38851;SDS011;24605;50.092;9.182;2024-02-28T12:59:35;22.02;;;12.85;;
38851;SDS011;24605;50.092;9.182;2024-02-28T13:02:03;22.70;;;12.80;;
38851;SDS011;24605;50.092;9.182;2024-02-28T13:04:30;22.00;;;12.50;;
38851;SDS011;24605;50.092;9.182;2024-02-28T13:06:57;21.58;;;12.80;;
38851;SDS011;24605;50.092;9.182;2024-02-28T13:09:23;21.88;;;13.18;;
38851;SDS011;24605;50.092;9.182;2024-02-28T13:11:49;20.85;;;12.10;;
38851;SDS011;24605;50.092;9.182;2024-02-28T13:14:16;18.75;;;10.45;;
38851;SDS011;24605;50.092;9.182;2024-02-28T13:16:44;16.55;;;9.27;;
38851;SDS011;24605;50.092;9.182;2024-02-28T13:19:10;16.35;;;9.20;;
38851;SDS011;24605;50.092;9.182;2024-02-28T13:21:38;16.73;;;9.45;;
38851;SDS011;24605;50.092;9.182;2024-02-28T13:24:05;16.63;;;9.15;;
38851;SDS011;24605;50.092;9.182;2024-02-28T13:26:32;16.20;;;8.85;;
38851;SDS011;24605;50.092;9.182;2024-02-28T13:28:58;16.88;;;9.02;;
38851;SDS011;24605;50.092;9.182;2024-02-28T13:31:24;15.65;;;9.40;;
38851;SDS011;24605;50.092;9.182;2024-02-28T13:33:52;16.80;;;9.40;;
38851;SDS011;24605;50.092;9.182;2024-02-28T13:36:19;17.27;;;9.60;;
38851;SDS011;24605;50.092;9.182;2024-02-28T13:38:45;16.60;;;9.18;;
38851;SDS011;24605;50.092;9.182;2024-02-28T13:41:12;19.27;;;11.10;;
38851;SDS011;24605;50.092;9.182;2024-02-28T13:43:39;17.65;;;9.27;;
38851;SDS011;24605;50.092;9.182;2024-02-28T13:46:05;16.05;;;8.73;;
38851;SDS011;24605;50.092;9.182;2024-02-28T13:48:31;17.27;;;9.07;;
38851;SDS011;24605;50.092;9.182;2024-02-28T13:51:00;17.35;;;10.25;;
38851;SDS011;24605;50.092;9.182;2024-02-28T13:53:27;17.23;;;9.73;;
38851;SDS011;24605;50.092;9.182;2024-02-28T13:55:53;17.10;;;9.18;;
38851;SDS011;24605;50.092;9.182;2024-02-28T13:58:20;15.77;;;9.25;;
38851;SDS011;24605;50.092;9.182;2024-02-28T14:00:46;15.30;;;8.98;;
38851;SDS011;24605;50.092;9.182;2024-02-28T14:03:13;14.15;;;7.80;;
38851;SDS011;24605;50.092;9.182;2024-02-28T14:05:40;12.88;;;7.63;;
38851;SDS011;24605;50.092;9.182;2024-02-28T14:08:08;14.43;;;7.32;;
38851;SDS011;24605;50.092;9.182;2024-02-28T14:10:36;14.15;;;7.65;;
38851;SDS011;24605;50.092;9.182;2024-02-28T14:13:03;13.63;;;6.47;;
38851;SDS011;24605;50.092;9.182;2024-02-28T14:15:30;13.93;;;7.55;;
38851;SDS011;24605;50.092;9.182;2024-02-28T14:17:56;13.88;;;7.82;;
38851;SDS011;24605;50.092;9.182;2024-02-28T14:20:23;13.73;;;7.53;;
38851;SDS011;24605;50.092;9.182;2024-02-28T14:22:49;13.30;;;7.88;;